Wetterdaten: aktuell Sonntag, 19.11.2017 16:35
Datum Zeit Temp. A. Feuchte A. Luftdruck Regen Wind Richtung Richtung Windben
19.11.2017 16:35 2,1 C 87 % 1014,9 hPa 0,0 l/m 0,0 km/h N 359 0,0 km/h
19.11.2017 16:30 2,3 C 87 % 1014,9 hPa 0,0 l/m 0,0 km/h N 353 0,0 km/h
19.11.2017 16:25 2,7 C 86 % 1015,0 hPa 0,0 l/m 0,0 km/h N 7 0,0 km/h
19.11.2017 16:20 2,8 C 85 % 1014,9 hPa 0,0 l/m 0,0 km/h N 350 0,0 km/h
19.11.2017 16:15 3,4 C 83 % 1014,8 hPa 0,0 l/m 0,0 km/h N-NO 12 0,0 km/h
19.11.2017 16:10 3,7 C 81 % 1014,8 hPa 0,0 l/m 0,0 km/h N-NO 17 0,0 km/h
19.11.2017 16:06 3,7 C 82 % 1014,7 hPa 0,0 l/m 0,0 km/h N-NW 347 0,0 km/h
19.11.2017 16:00 3,8 C 83 % 1014,6 hPa 0,0 l/m 0,0 km/h N-NW 342 1,6 km/h
19.11.2017 15:55 4,0 C 82 % 1014,7 hPa 0,0 l/m 0,0 km/h NW 310 0,0 km/h
19.11.2017 15:50 4,1 C 83 % 1014,7 hPa 0,0 l/m 0,0 km/h W-NW 300 0,0 km/h
19.11.2017 15:45 4,3 C 81 % 1014,5 hPa 0,0 l/m 0,0 km/h NW 319 0,0 km/h
19.11.2017 15:40 4,6 C 79 % 1014,6 hPa 0,0 l/m 0,0 km/h NW 325 0,0 km/h
19.11.2017 15:35 4,6 C 79 % 1014,5 hPa 0,0 l/m 0,0 km/h W-NW 299 0,0 km/h
19.11.2017 15:30 4,6 C 81 % 1014,5 hPa 0,0 l/m 0,0 km/h NW 305 0,0 km/h
19.11.2017 15:25 4,7 C 82 % 1014,3 hPa 0,0 l/m 0,0 km/h NW 325 1,6 km/h
19.11.2017 15:20 4,7 C 83 % 1014,4 hPa 0,0 l/m 0,9 km/h N 353 14,5 km/h
19.11.2017 15:15 4,7 C 86 % 1014,5 hPa 0,0 l/m 0,0 km/h N 351 0,0 km/h
19.11.2017 15:10 4,6 C 88 % 1014,6 hPa 0,0 l/m 0,0 km/h N 350 0,0 km/h
19.11.2017 15:05 4,5 C 88 % 1014,5 hPa 0,0 l/m 0,0 km/h N 354 0,0 km/h
19.11.2017 15:00 4,4 C 89 % 1014,6 hPa 0,0 l/m 0,0 km/h N 350 0,0 km/h
19.11.2017 14:55 4,4 C 89 % 1014,4 hPa 0,0 l/m 0,0 km/h N 7 0,0 km/h
19.11.2017 14:50 4,4 C 88 % 1014,4 hPa 0,0 l/m 0,0 km/h N-NO 12 0,0 km/h
19.11.2017 14:45 4,4 C 88 % 1014,3 hPa 0,0 l/m 0,0 km/h N-NO 12 0,0 km/h
19.11.2017 14:40 4,5 C 87 % 1014,3 hPa 0,0 l/m 0,0 km/h N 357 0,0 km/h
19.11.2017 14:35 4,5 C 86 % 1014,3 hPa 0,0 l/m 0,8 km/h N 350 12,9 km/h
19.11.2017 14:30 4,6 C 86 % 1014,1 hPa 0,0 l/m 1,2 km/h N-NO 21 9,7 km/h
19.11.2017 14:25 4,7 C 85 % 1014,1 hPa 0,2 l/m 4,0 km/h N-NO 31 20,9 km/h
19.11.2017 14:20 4,7 C 85 % 1014,2 hPa 0,0 l/m 6,1 km/h N-NO 12 22,5 km/h
19.11.2017 14:15 4,8 C 84 % 1014,2 hPa 0,0 l/m 8,5 km/h N 7 24,1 km/h
19.11.2017 14:10 5,1 C 82 % 1014,1 hPa 0,2 l/m 12,9 km/h N 354 27,4 km/h
19.11.2017 14:05 5,7 C 78 % 1014,1 hPa 0,0 l/m 22,1 km/h N-NO 23 33,8 km/h
19.11.2017 14:00 6,9 C 73 % 1014,0 hPa 0,0 l/m 6,7 km/h NO 38 24,1 km/h
19.11.2017 13:55 7,2 C 70 % 1013,7 hPa 0,0 l/m 2,5 km/h N 7 17,7 km/h
19.11.2017 13:50 7,2 C 70 % 1013,5 hPa 0,0 l/m 0,0 km/h NO 46 1,6 km/h
19.11.2017 13:45 7,1 C 75 % 1013,3 hPa 0,0 l/m 0,0 km/h S 186 0,0 km/h
19.11.2017 13:40 7,0 C 75 % 1013,4 hPa 0,0 l/m 0,0 km/h S 186 0,0 km/h
19.11.2017 13:35 6,8 C 77 % 1013,4 hPa 0,0 l/m 0,0 km/h S 173 0,0 km/h
19.11.2017 13:30 6,6 C 76 % 1013,4 hPa 0,0 l/m 0,0 km/h S 173 0,0 km/h
19.11.2017 13:25 6,5 C 76 % 1013,3 hPa 0,0 l/m 0,0 km/h S-SO 166 0,0 km/h
19.11.2017 13:20 6,6 C 77 % 1013,4 hPa 0,0 l/m 0,0 km/h S 175 0,0 km/h
19.11.2017 13:15 6,3 C 76 % 1013,3 hPa 0,0 l/m 0,0 km/h S 184 0,0 km/h
19.11.2017 13:10 6,3 C 75 % 1013,3 hPa 0,0 l/m 0,0 km/h S-SO 151 0,0 km/h
19.11.2017 13:06 6,3 C 76 % 1013,2 hPa 0,0 l/m 0,0 km/h O-NO 67 0,0 km/h
19.11.2017 13:00 6,1 C 76 % 1013,3 hPa 0,0 l/m 0,0 km/h N 7 0,0 km/h
19.11.2017 12:55 5,8 C 75 % 1013,3 hPa 0,0 l/m 0,0 km/h N 7 0,0 km/h
19.11.2017 12:50 5,8 C 75 % 1013,4 hPa 0,0 l/m 0,0 km/h N-NW 334 0,0 km/h
19.11.2017 12:45 5,7 C 75 % 1013,3 hPa 0,0 l/m 0,0 km/h S-SW 202 0,0 km/h
19.11.2017 12:40 5,7 C 76 % 1013,5 hPa 0,0 l/m 0,0 km/h S-SW 202 0,0 km/h
19.11.2017 12:35 5,6 C 77 % 1013,5 hPa 0,0 l/m 0,0 km/h S-SW 202 0,0 km/h
19.11.2017 12:30 5,5 C 78 % 1013,6 hPa 0,0 l/m 0,0 km/h S-SW 202 0,0 km/h
19.11.2017 12:25 5,3 C 78 % 1013,7 hPa 0,0 l/m 0,0 km/h S-SW 202 0,0 km/h
19.11.2017 12:20 5,3 C 78 % 1013,6 hPa 0,0 l/m 0,0 km/h S-SW 202 0,0 km/h
19.11.2017 12:15 5,3 C 77 % 1013,7 hPa 0,0 l/m 0,0 km/h S-SW 202 0,0 km/h
19.11.2017 12:10 5,3 C 78 % 1013,8 hPa 0,0 l/m 0,0 km/h S-SW 202 0,0 km/h
19.11.2017 12:05 5,5 C 79 % 1013,7 hPa 0,0 l/m 0,0 km/h S-SW 202 0,0 km/h
19.11.2017 12:00 5,3 C 80 % 1013,8 hPa 0,0 l/m 0,0 km/h S-SW 202 0,0 km/h
19.11.2017 11:55 5,0 C 81 % 1013,8 hPa 0,0 l/m 0,0 km/h S-SW 202 0,0 km/h
19.11.2017 11:50 4,7 C 81 % 1013,9 hPa 0,0 l/m 0,0 km/h S 190 0,0 km/h
19.11.2017 11:45 4,9 C 80 % 1013,9 hPa 0,0 l/m 0,0 km/h S 185 0,0 km/h
19.11.2017 11:40 5,1 C 79 % 1014,0 hPa 0,0 l/m 0,0 km/h S 190 0,0 km/h
19.11.2017 11:35 5,3 C 79 % 1014,2 hPa 0,0 l/m 0,0 km/h S-SO 166 0,0 km/h
19.11.2017 11:30 5,4 C 79 % 1014,2 hPa 0,0 l/m 0,0 km/h S 171 0,0 km/h
19.11.2017 11:25 5,1 C 78 % 1014,2 hPa 0,0 l/m 0,0 km/h S-SO 154 0,0 km/h
19.11.2017 11:20 4,9 C 77 % 1014,2 hPa 0,0 l/m 0,0 km/h SO 133 0,0 km/h
19.11.2017 11:15 4,9 C 80 % 1014,3 hPa 0,0 l/m 0,0 km/h SO 133 0,0 km/h
19.11.2017 11:10 4,8 C 81 % 1014,3 hPa 0,0 l/m 0,0 km/h SO 133 0,0 km/h
19.11.2017 11:05 4,7 C 81 % 1014,2 hPa 0,0 l/m 0,0 km/h S-SO 167 0,0 km/h
19.11.2017 11:00 4,7 C 81 % 1014,2 hPa 0,0 l/m 0,0 km/h S 173 0,0 km/h
19.11.2017 10:55 4,7 C 83 % 1014,2 hPa 0,0 l/m 0,0 km/h S 189 0,0 km/h
19.11.2017 10:50 4,3 C 83 % 1014,2 hPa 0,0 l/m 0,0 km/h S 189 0,0 km/h
19.11.2017 10:45 4,2 C 84 % 1014,2 hPa 0,0 l/m 0,0 km/h S-SW 196 0,0 km/h
19.11.2017 10:40 4,1 C 85 % 1014,4 hPa 0,0 l/m 0,0 km/h S-SO 168 0,0 km/h
19.11.2017 10:35 3,9 C 85 % 1014,4 hPa 0,0 l/m 0,0 km/h S-SO 163 0,0 km/h
19.11.2017 10:30 3,5 C 85 % 1014,4 hPa 0,0 l/m 0,0 km/h S-SO 163 0,0 km/h
19.11.2017 10:25 3,3 C 85 % 1014,5 hPa 0,0 l/m 0,0 km/h S-SO 167 0,0 km/h
19.11.2017 10:20 3,1 C 86 % 1014,6 hPa 0,0 l/m 0,0 km/h S-SO 167 0,0 km/h
19.11.2017 10:15 2,8 C 87 % 1014,6 hPa 0,0 l/m 0,0 km/h S-SO 167 0,0 km/h
19.11.2017 10:10 2,8 C 87 % 1014,6 hPa 0,0 l/m 0,0 km/h S-SO 167 0,0 km/h
19.11.2017 10:05 2,7 C 88 % 1014,6 hPa 0,0 l/m 0,0 km/h S-SO 167 0,0 km/h
19.11.2017 10:00 2,7 C 88 % 1014,6 hPa 0,0 l/m 0,0 km/h S-SO 167 0,0 km/h
19.11.2017 09:55 2,6 C 89 % 1014,6 hPa 0,0 l/m 0,0 km/h S-SO 162 0,0 km/h
19.11.2017 09:50 2,1 C 90 % 1014,6 hPa 0,0 l/m 0,0 km/h N 7 0,0 km/h
19.11.2017 09:45 1,5 C 91 % 1014,6 hPa 0,0 l/m 0,0 km/h N 7 0,0 km/h
19.11.2017 09:40 1,2 C 92 % 1014,6 hPa 0,0 l/m 0,0 km/h N 7 0,0 km/h
19.11.2017 09:35 1,1 C 92 % 1014,7 hPa 0,0 l/m 0,0 km/h N 7 0,0 km/h
19.11.2017 09:30 1,1 C 93 % 1014,7 hPa 0,0 l/m 0,0 km/h W-NW 302 0,0 km/h
19.11.2017 09:25 0,9 C 93 % 1014,8 hPa 0,0 l/m 0,0 km/h W-NW 302 0,0 km/h
19.11.2017 09:20 0,8 C 93 % 1014,7 hPa 0,0 l/m 0,0 km/h W-NW 302 0,0 km/h
19.11.2017 09:15 0,8 C 93 % 1014,7 hPa 0,0 l/m 0,0 km/h W-NW 302 0,0 km/h
19.11.2017 09:10 0,7 C 94 % 1014,7 hPa 0,0 l/m 0,0 km/h W-NW 302 0,0 km/h
19.11.2017 09:05 0,6 C 94 % 1014,7 hPa 0,0 l/m 0,0 km/h W-NW 302 0,0 km/h
19.11.2017 09:00 0,3 C 94 % 1014,8 hPa 0,0 l/m 0,0 km/h W-NW 302 0,0 km/h
19.11.2017 08:55 -0,3 C 94 % 1014,8 hPa 0,0 l/m 0,0 km/h W-NW 302 0,0 km/h
19.11.2017 08:50 -0,6 C 94 % 1014,9 hPa 0,0 l/m 0,0 km/h W-NW 302 0,0 km/h
19.11.2017 08:45 -0,7 C 94 % 1014,9 hPa 0,0 l/m 0,0 km/h W-NW 302 0,0 km/h
19.11.2017 08:40 -0,7 C 94 % 1015,0 hPa 0,0 l/m 0,0 km/h W-NW 302 0,0 km/h
19.11.2017 08:35 -0,7 C 94 % 1014,9 hPa 0,0 l/m 0,0 km/h W-NW 302 0,0 km/h
_ Min-Zeit 06:35 13:50 13:06 - 17:00 - - 17:00
Minimum _ -1,8 C 70 % 1013,2 hPa - 0,0 km/h - - 0,0 km/h
_ Max-Zeit 13:50 01:55 18:10 03:20 14:05 - - 14:05
Maximum _ 7,2 C 95 % 1018,9 hPa 0,2 l/m 22,1 km/h
N-NO
- - 33,8 km/h
N-NO
Durchschnitt _ 1,9 C 90 % 1016,3 hPa #0,6 l/m 0,2 km/h N-NO - 0,7 km/h